sensor_id;sensor_type;location;lat;lon;timestamp;pressure;altitude;pressure_sealevel;temperature;humidity
4981;BME280;2507;50.392;7.482;2023-01-25T00:01:08;102813.78;;;5.36;65.15
4981;BME280;2507;50.392;7.482;2023-01-25T00:03:33;102819.13;;;5.26;64.62
4981;BME280;2507;50.392;7.482;2023-01-25T00:05:59;102814.03;;;5.18;65.31
4981;BME280;2507;50.392;7.482;2023-01-25T00:08:25;102823.50;;;5.24;65.25
4981;BME280;2507;50.392;7.482;2023-01-25T00:10:51;102818.25;;;5.27;64.45
4981;BME280;2507;50.392;7.482;2023-01-25T00:13:17;102819.94;;;5.29;65.31
4981;BME280;2507;50.392;7.482;2023-01-25T00:15:42;102804.22;;;4.70;67.19
4981;BME280;2507;50.392;7.482;2023-01-25T00:18:07;102804.50;;;4.43;68.33
4981;BME280;2507;50.392;7.482;2023-01-25T00:20:33;102807.44;;;4.06;70.07
4981;BME280;2507;50.392;7.482;2023-01-25T00:22:58;102804.66;;;4.26;70.07
4981;BME280;2507;50.392;7.482;2023-01-25T00:25:23;102803.78;;;4.29;70.14
4981;BME280;2507;50.392;7.482;2023-01-25T00:27:52;102795.91;;;4.35;69.40
4981;BME280;2507;50.392;7.482;2023-01-25T00:30:17;102797.44;;;4.55;69.35
4981;BME280;2507;50.392;7.482;2023-01-25T00:32:52;102798.72;;;4.95;67.54
4981;BME280;2507;50.392;7.482;2023-01-25T00:35:18;102797.59;;;5.13;66.34
4981;BME280;2507;50.392;7.482;2023-01-25T00:37:51;102799.31;;;5.15;66.17
4981;BME280;2507;50.392;7.482;2023-01-25T00:40:17;102804.56;;;5.11;66.60
4981;BME280;2507;50.392;7.482;2023-01-25T00:42:43;102787.88;;;5.26;65.98
4981;BME280;2507;50.392;7.482;2023-01-25T00:45:10;102790.44;;;5.30;65.69
4981;BME280;2507;50.392;7.482;2023-01-25T00:47:37;102790.41;;;5.32;65.47
4981;BME280;2507;50.392;7.482;2023-01-25T00:50:03;102788.00;;;5.16;66.27
4981;BME280;2507;50.392;7.482;2023-01-25T00:52:29;102785.31;;;5.24;65.63
4981;BME280;2507;50.392;7.482;2023-01-25T00:54:56;102781.63;;;4.76;66.75
4981;BME280;2507;50.392;7.482;2023-01-25T00:57:21;102775.81;;;4.52;68.10
4981;BME280;2507;50.392;7.482;2023-01-25T00:59:47;102780.88;;;4.64;67.78
4981;BME280;2507;50.392;7.482;2023-01-25T01:02:12;102775.63;;;4.70;67.23
4981;BME280;2507;50.392;7.482;2023-01-25T01:04:37;102780.91;;;4.61;67.65
4981;BME280;2507;50.392;7.482;2023-01-25T01:07:03;102776.78;;;4.43;68.51
4981;BME280;2507;50.392;7.482;2023-01-25T01:09:29;102774.28;;;4.36;68.86
4981;BME280;2507;50.392;7.482;2023-01-25T01:11:54;102773.38;;;4.40;68.82
4981;BME280;2507;50.392;7.482;2023-01-25T01:14:21;102767.56;;;4.13;70.41
4981;BME280;2507;50.392;7.482;2023-01-25T01:16:46;102769.84;;;4.45;68.99
4981;BME280;2507;50.392;7.482;2023-01-25T01:19:12;102773.19;;;4.56;68.98
4981;BME280;2507;50.392;7.482;2023-01-25T01:21:38;102772.09;;;4.74;68.14
4981;BME280;2507;50.392;7.482;2023-01-25T01:24:04;102767.88;;;4.64;68.65
4981;BME280;2507;50.392;7.482;2023-01-25T01:26:29;102764.00;;;4.96;67.57
4981;BME280;2507;50.392;7.482;2023-01-25T01:28:57;102781.34;;;4.97;66.42
4981;BME280;2507;50.392;7.482;2023-01-25T01:31:23;102762.25;;;5.00;66.98
4981;BME280;2507;50.392;7.482;2023-01-25T01:33:49;102763.41;;;4.75;67.36
4981;BME280;2507;50.392;7.482;2023-01-25T01:36:16;102768.78;;;4.61;68.20
4981;BME280;2507;50.392;7.482;2023-01-25T01:38:43;102771.41;;;4.60;68.56
4981;BME280;2507;50.392;7.482;2023-01-25T01:41:09;102771.09;;;4.85;67.79
4981;BME280;2507;50.392;7.482;2023-01-25T01:43:38;102773.00;;;4.71;68.14
4981;BME280;2507;50.392;7.482;2023-01-25T01:46:08;102773.97;;;4.63;68.63
4981;BME280;2507;50.392;7.482;2023-01-25T01:48:39;102775.47;;;4.82;68.42
4981;BME280;2507;50.392;7.482;2023-01-25T01:54:17;102768.69;;;4.67;67.88
4981;BME280;2507;50.392;7.482;2023-01-25T01:56:47;102761.91;;;4.57;69.18
4981;BME280;2507;50.392;7.482;2023-01-25T01:59:16;102759.25;;;4.63;68.92
4981;BME280;2507;50.392;7.482;2023-01-25T02:01:43;102760.94;;;4.64;69.21
4981;BME280;2507;50.392;7.482;2023-01-25T02:04:09;102753.09;;;4.67;69.02
4981;BME280;2507;50.392;7.482;2023-01-25T02:06:51;102758.91;;;4.90;68.67
4981;BME280;2507;50.392;7.482;2023-01-25T02:09:21;102760.41;;;5.06;68.15
4981;BME280;2507;50.392;7.482;2023-01-25T02:11:50;102761.25;;;5.08;67.67
4981;BME280;2507;50.392;7.482;2023-01-25T02:14:16;102758.31;;;5.33;67.04
4981;BME280;2507;50.392;7.482;2023-01-25T02:16:43;102761.53;;;5.50;65.80
4981;BME280;2507;50.392;7.482;2023-01-25T02:19:12;102763.34;;;5.45;66.15
4981;BME280;2507;50.392;7.482;2023-01-25T02:21:43;102760.03;;;5.34;66.06
4981;BME280;2507;50.392;7.482;2023-01-25T02:24:15;102763.41;;;5.39;65.83
4981;BME280;2507;50.392;7.482;2023-01-25T02:26:45;102759.41;;;5.18;66.73
4981;BME280;2507;50.392;7.482;2023-01-25T02:29:11;102765.38;;;5.25;66.27
4981;BME280;2507;50.392;7.482;2023-01-25T02:31:37;102759.25;;;5.29;66.52
4981;BME280;2507;50.392;7.482;2023-01-25T02:34:02;102762.78;;;5.23;66.61
4981;BME280;2507;50.392;7.482;2023-01-25T02:36:30;102754.84;;;5.32;66.02
4981;BME280;2507;50.392;7.482;2023-01-25T02:39:02;102754.97;;;5.23;65.78
4981;BME280;2507;50.392;7.482;2023-01-25T02:41:39;102756.72;;;5.22;65.71
4981;BME280;2507;50.392;7.482;2023-01-25T02:44:07;102754.16;;;5.21;66.07
4981;BME280;2507;50.392;7.482;2023-01-25T02:46:35;102747.28;;;5.15;66.29
4981;BME280;2507;50.392;7.482;2023-01-25T02:49:02;102743.88;;;5.10;66.91
4981;BME280;2507;50.392;7.482;2023-01-25T02:51:30;102749.34;;;4.91;67.35
4981;BME280;2507;50.392;7.482;2023-01-25T02:53:55;102749.97;;;5.09;66.98
4981;BME280;2507;50.392;7.482;2023-01-25T02:56:21;102751.34;;;4.72;67.96
4981;BME280;2507;50.392;7.482;2023-01-25T02:58:47;102753.09;;;4.67;68.72
4981;BME280;2507;50.392;7.482;2023-01-25T03:01:13;102749.56;;;4.76;68.09
4981;BME280;2507;50.392;7.482;2023-01-25T03:03:39;102742.34;;;4.96;67.97
4981;BME280;2507;50.392;7.482;2023-01-25T03:06:05;102739.66;;;5.03;67.23
4981;BME280;2507;50.392;7.482;2023-01-25T03:08:31;102736.41;;;4.86;67.81
4981;BME280;2507;50.392;7.482;2023-01-25T03:10:58;102737.19;;;4.94;67.74
4981;BME280;2507;50.392;7.482;2023-01-25T03:13:24;102726.72;;;4.97;68.18
4981;BME280;2507;50.392;7.482;2023-01-25T03:15:49;102724.97;;;4.96;68.08
4981;BME280;2507;50.392;7.482;2023-01-25T03:18:15;102730.19;;;4.96;67.78
4981;BME280;2507;50.392;7.482;2023-01-25T03:20:40;102726.25;;;4.68;68.93
4981;BME280;2507;50.392;7.482;2023-01-25T03:23:05;102733.00;;;4.81;68.34
4981;BME280;2507;50.392;7.482;2023-01-25T03:25:31;102731.44;;;4.68;68.02
4981;BME280;2507;50.392;7.482;2023-01-25T03:27:56;102729.75;;;4.64;69.10
4981;BME280;2507;50.392;7.482;2023-01-25T03:30:21;102733.06;;;4.77;69.16
4981;BME280;2507;50.392;7.482;2023-01-25T03:32:46;102726.91;;;4.82;69.12
4981;BME280;2507;50.392;7.482;2023-01-25T03:35:12;102713.78;;;4.94;68.54
4981;BME280;2507;50.392;7.482;2023-01-25T03:37:37;102720.63;;;5.00;67.77
4981;BME280;2507;50.392;7.482;2023-01-25T03:40:02;102720.00;;;4.81;68.78
4981;BME280;2507;50.392;7.482;2023-01-25T03:42:28;102720.28;;;4.62;68.82
4981;BME280;2507;50.392;7.482;2023-01-25T03:44:53;102719.63;;;4.42;70.32
4981;BME280;2507;50.392;7.482;2023-01-25T03:47:18;102716.78;;;4.61;69.69
4981;BME280;2507;50.392;7.482;2023-01-25T03:49:44;102714.25;;;4.57;69.51
4981;BME280;2507;50.392;7.482;2023-01-25T03:52:09;102716.06;;;4.50;69.66
4981;BME280;2507;50.392;7.482;2023-01-25T03:54:34;102711.16;;;4.25;70.47
4981;BME280;2507;50.392;7.482;2023-01-25T03:56:59;102706.34;;;3.87;72.26
4981;BME280;2507;50.392;7.482;2023-01-25T03:59:25;102707.19;;;3.87;73.48
4981;BME280;2507;50.392;7.482;2023-01-25T04:01:50;102709.72;;;3.95;72.72
4981;BME280;2507;50.392;7.482;2023-01-25T04:04:15;102707.25;;;3.83;73.78
4981;BME280;2507;50.392;7.482;2023-01-25T04:06:41;102709.69;;;4.01;72.88
4981;BME280;2507;50.392;7.482;2023-01-25T04:09:06;102699.97;;;4.20;72.90
4981;BME280;2507;50.392;7.482;2023-01-25T04:11:32;102696.00;;;4.58;71.93
4981;BME280;2507;50.392;7.482;2023-01-25T04:13:57;102702.94;;;4.61;70.88
4981;BME280;2507;50.392;7.482;2023-01-25T04:16:22;102692.25;;;4.82;70.39
4981;BME280;2507;50.392;7.482;2023-01-25T04:18:48;102699.13;;;4.86;69.63
4981;BME280;2507;50.392;7.482;2023-01-25T04:21:13;102688.13;;;4.66;70.24
4981;BME280;2507;50.392;7.482;2023-01-25T04:23:38;102689.59;;;4.86;69.98
4981;BME280;2507;50.392;7.482;2023-01-25T04:26:05;102692.16;;;4.88;69.67
4981;BME280;2507;50.392;7.482;2023-01-25T04:28:33;102681.09;;;4.74;69.45
4981;BME280;2507;50.392;7.482;2023-01-25T04:30:58;102682.03;;;4.68;70.21
4981;BME280;2507;50.392;7.482;2023-01-25T04:33:24;102682.19;;;4.58;70.67
4981;BME280;2507;50.392;7.482;2023-01-25T04:35:49;102684.91;;;4.46;71.02
4981;BME280;2507;50.392;7.482;2023-01-25T04:38:15;102675.16;;;4.64;70.84
4981;BME280;2507;50.392;7.482;2023-01-25T04:40:42;102681.22;;;4.65;70.71
4981;BME280;2507;50.392;7.482;2023-01-25T04:43:07;102679.59;;;4.56;70.47
4981;BME280;2507;50.392;7.482;2023-01-25T04:45:34;102674.47;;;4.50;70.93
4981;BME280;2507;50.392;7.482;2023-01-25T04:48:04;102678.75;;;4.56;71.66
4981;BME280;2507;50.392;7.482;2023-01-25T04:50:30;102674.06;;;4.80;70.32
4981;BME280;2507;50.392;7.482;2023-01-25T04:52:56;102697.41;;;4.85;69.75
4981;BME280;2507;50.392;7.482;2023-01-25T04:55:21;102673.38;;;4.68;69.70
4981;BME280;2507;50.392;7.482;2023-01-25T04:57:50;102671.53;;;4.76;70.36
4981;BME280;2507;50.392;7.482;2023-01-25T05:00:16;102692.13;;;4.89;68.92
4981;BME280;2507;50.392;7.482;2023-01-25T05:02:41;102676.34;;;5.03;69.06
4981;BME280;2507;50.392;7.482;2023-01-25T05:05:07;102675.56;;;4.96;68.21
4981;BME280;2507;50.392;7.482;2023-01-25T05:07:33;102675.56;;;4.96;68.49
4981;BME280;2507;50.392;7.482;2023-01-25T05:09:58;102671.63;;;4.68;69.33
4981;BME280;2507;50.392;7.482;2023-01-25T05:12:24;102676.59;;;4.20;71.25
4981;BME280;2507;50.392;7.482;2023-01-25T05:14:49;102656.22;;;3.79;73.46
4981;BME280;2507;50.392;7.482;2023-01-25T05:17:14;102664.91;;;3.75;73.97
4981;BME280;2507;50.392;7.482;2023-01-25T05:19:40;102658.13;;;3.60;74.77
4981;BME280;2507;50.392;7.482;2023-01-25T05:22:06;102661.31;;;3.89;74.33
4981;BME280;2507;50.392;7.482;2023-01-25T05:24:33;102669.06;;;3.91;74.23
4981;BME280;2507;50.392;7.482;2023-01-25T05:27:00;102669.19;;;3.80;74.44
4981;BME280;2507;50.392;7.482;2023-01-25T05:29:54;102654.44;;;3.87;75.17
4981;BME280;2507;50.392;7.482;2023-01-25T05:32:21;102661.19;;;4.01;74.13
4981;BME280;2507;50.392;7.482;2023-01-25T05:34:47;102656.50;;;4.34;72.34
4981;BME280;2507;50.392;7.482;2023-01-25T05:37:15;102642.31;;;4.57;71.03
4981;BME280;2507;50.392;7.482;2023-01-25T05:39:40;102649.34;;;4.51;70.49
4981;BME280;2507;50.392;7.482;2023-01-25T05:42:10;102640.56;;;4.59;70.12
4981;BME280;2507;50.392;7.482;2023-01-25T05:44:36;102648.28;;;4.64;70.46
4981;BME280;2507;50.392;7.482;2023-01-25T05:47:02;102651.69;;;4.67;70.14
4981;BME280;2507;50.392;7.482;2023-01-25T05:49:27;102650.34;;;4.39;70.26
4981;BME280;2507;50.392;7.482;2023-01-25T05:51:52;102646.16;;;4.28;70.73
4981;BME280;2507;50.392;7.482;2023-01-25T05:54:18;102632.31;;;4.29;70.98
4981;BME280;2507;50.392;7.482;2023-01-25T05:56:43;102634.28;;;4.08;72.64
4981;BME280;2507;50.392;7.482;2023-01-25T05:59:10;102629.72;;;4.27;72.47
4981;BME280;2507;50.392;7.482;2023-01-25T06:01:36;102629.50;;;4.44;71.85
4981;BME280;2507;50.392;7.482;2023-01-25T06:04:02;102634.72;;;4.42;71.84
4981;BME280;2507;50.392;7.482;2023-01-25T06:06:28;102631.50;;;4.24;72.22
4981;BME280;2507;50.392;7.482;2023-01-25T06:08:53;102634.19;;;4.16;72.46
4981;BME280;2507;50.392;7.482;2023-01-25T06:11:21;102635.63;;;4.40;72.98
4981;BME280;2507;50.392;7.482;2023-01-25T06:13:47;102628.44;;;4.60;72.08
4981;BME280;2507;50.392;7.482;2023-01-25T06:16:12;102623.31;;;4.54;71.68
4981;BME280;2507;50.392;7.482;2023-01-25T06:18:38;102637.94;;;4.61;70.96
4981;BME280;2507;50.392;7.482;2023-01-25T06:21:04;102620.94;;;4.36;71.30
4981;BME280;2507;50.392;7.482;2023-01-25T06:23:29;102627.72;;;4.49;71.88
4981;BME280;2507;50.392;7.482;2023-01-25T06:26:00;102624.19;;;4.54;70.86
4981;BME280;2507;50.392;7.482;2023-01-25T06:28:29;102638.66;;;4.72;71.42
4981;BME280;2507;50.392;7.482;2023-01-25T06:30:55;102620.09;;;4.96;69.78
4981;BME280;2507;50.392;7.482;2023-01-25T06:33:20;102627.75;;;5.05;68.50
4981;BME280;2507;50.392;7.482;2023-01-25T06:35:46;102628.13;;;4.81;69.05
4981;BME280;2507;50.392;7.482;2023-01-25T06:38:11;102621.91;;;4.89;69.24
4981;BME280;2507;50.392;7.482;2023-01-25T06:40:36;102634.47;;;4.60;69.83
4981;BME280;2507;50.392;7.482;2023-01-25T06:43:05;102622.53;;;4.47;71.27
4981;BME280;2507;50.392;7.482;2023-01-25T06:45:31;102640.03;;;4.33;71.16
4981;BME280;2507;50.392;7.482;2023-01-25T06:47:57;102642.91;;;4.10;72.06
4981;BME280;2507;50.392;7.482;2023-01-25T06:50:22;102634.31;;;4.04;73.12
4981;BME280;2507;50.392;7.482;2023-01-25T06:52:52;102666.34;;;4.04;73.65
4981;BME280;2507;50.392;7.482;2023-01-25T06:55:17;102628.97;;;4.18;73.09
4981;BME280;2507;50.392;7.482;2023-01-25T06:57:43;102624.66;;;4.15;73.23
4981;BME280;2507;50.392;7.482;2023-01-25T07:00:08;102628.78;;;4.31;72.89
4981;BME280;2507;50.392;7.482;2023-01-25T07:02:35;102610.25;;;4.60;71.41
4981;BME280;2507;50.392;7.482;2023-01-25T07:05:00;102610.22;;;4.58;71.27
4981;BME280;2507;50.392;7.482;2023-01-25T07:07:26;102612.84;;;4.60;71.19
4981;BME280;2507;50.392;7.482;2023-01-25T07:09:51;102614.53;;;4.61;71.37
4981;BME280;2507;50.392;7.482;2023-01-25T07:12:16;102627.50;;;4.65;71.18
4981;BME280;2507;50.392;7.482;2023-01-25T07:14:43;102615.28;;;4.70;71.13
4981;BME280;2507;50.392;7.482;2023-01-25T07:17:08;102625.56;;;4.78;71.13
4981;BME280;2507;50.392;7.482;2023-01-25T07:19:34;102627.19;;;4.85;70.59
4981;BME280;2507;50.392;7.482;2023-01-25T07:21:59;102618.25;;;5.02;70.24
4981;BME280;2507;50.392;7.482;2023-01-25T07:24:24;102620.03;;;5.00;69.54
4981;BME280;2507;50.392;7.482;2023-01-25T07:26:51;102610.50;;;4.99;69.30
4981;BME280;2507;50.392;7.482;2023-01-25T07:29:16;102615.09;;;4.82;69.67
4981;BME280;2507;50.392;7.482;2023-01-25T07:31:42;102613.81;;;4.51;70.56
4981;BME280;2507;50.392;7.482;2023-01-25T07:34:09;102618.31;;;4.37;71.40
4981;BME280;2507;50.392;7.482;2023-01-25T07:36:36;102604.34;;;4.47;71.80
4981;BME280;2507;50.392;7.482;2023-01-25T07:39:01;102606.59;;;4.71;71.48
4981;BME280;2507;50.392;7.482;2023-01-25T07:41:26;102612.53;;;4.79;69.90
4981;BME280;2507;50.392;7.482;2023-01-25T07:43:52;102626.53;;;4.69;70.69
4981;BME280;2507;50.392;7.482;2023-01-25T07:46:18;102618.75;;;4.69;70.01
4981;BME280;2507;50.392;7.482;2023-01-25T07:48:48;102605.75;;;4.69;70.45
4981;BME280;2507;50.392;7.482;2023-01-25T07:51:14;102606.78;;;4.59;70.77
4981;BME280;2507;50.392;7.482;2023-01-25T07:53:59;102618.94;;;4.57;71.49
4981;BME280;2507;50.392;7.482;2023-01-25T07:56:27;102629.38;;;4.53;72.04
4981;BME280;2507;50.392;7.482;2023-01-25T07:58:54;102623.81;;;4.80;71.50
4981;BME280;2507;50.392;7.482;2023-01-25T08:01:22;102647.09;;;4.89;70.21
4981;BME280;2507;50.392;7.482;2023-01-25T08:03:48;102627.88;;;4.97;69.41
4981;BME280;2507;50.392;7.482;2023-01-25T08:06:14;102624.34;;;5.01;69.18
4981;BME280;2507;50.392;7.482;2023-01-25T08:08:45;102631.06;;;5.16;68.40
4981;BME280;2507;50.392;7.482;2023-01-25T08:11:12;102624.25;;;4.48;70.15
4981;BME280;2507;50.392;7.482;2023-01-25T08:13:39;102641.25;;;4.05;71.88
4981;BME280;2507;50.392;7.482;2023-01-25T08:16:04;102623.47;;;3.66;74.05
4981;BME280;2507;50.392;7.482;2023-01-25T08:18:29;102624.47;;;3.54;74.82
4981;BME280;2507;50.392;7.482;2023-01-25T08:20:58;102630.56;;;3.50;75.56
4981;BME280;2507;50.392;7.482;2023-01-25T08:23:24;102640.03;;;3.53;76.00
4981;BME280;2507;50.392;7.482;2023-01-25T08:25:49;102619.19;;;3.63;76.00
4981;BME280;2507;50.392;7.482;2023-01-25T08:28:15;102613.84;;;3.80;75.47
4981;BME280;2507;50.392;7.482;2023-01-25T08:30:40;102616.13;;;4.07;74.85
4981;BME280;2507;50.392;7.482;2023-01-25T08:33:05;102617.41;;;4.41;73.61
4981;BME280;2507;50.392;7.482;2023-01-25T08:35:31;102635.16;;;4.06;72.78
4981;BME280;2507;50.392;7.482;2023-01-25T08:37:56;102626.91;;;3.68;74.33
4981;BME280;2507;50.392;7.482;2023-01-25T08:40:21;102633.91;;;3.58;75.90
4981;BME280;2507;50.392;7.482;2023-01-25T08:42:46;102627.16;;;3.45;76.81
4981;BME280;2507;50.392;7.482;2023-01-25T08:45:12;102622.84;;;3.43;76.64
4981;BME280;2507;50.392;7.482;2023-01-25T08:47:38;102625.25;;;3.61;76.42
4981;BME280;2507;50.392;7.482;2023-01-25T08:50:03;102619.97;;;3.71;75.98
4981;BME280;2507;50.392;7.482;2023-01-25T08:52:29;102614.84;;;3.65;75.73
4981;BME280;2507;50.392;7.482;2023-01-25T08:54:54;102627.81;;;3.64;75.86
4981;BME280;2507;50.392;7.482;2023-01-25T08:57:19;102629.25;;;3.92;75.27
4981;BME280;2507;50.392;7.482;2023-01-25T08:59:45;102610.00;;;4.11;74.90
4981;BME280;2507;50.392;7.482;2023-01-25T09:02:11;102608.00;;;4.31;74.40
4981;BME280;2507;50.392;7.482;2023-01-25T09:04:36;102602.31;;;4.67;72.14
4981;BME280;2507;50.392;7.482;2023-01-25T09:07:02;102604.75;;;4.79;71.76
4981;BME280;2507;50.392;7.482;2023-01-25T09:09:27;102591.34;;;5.05;70.32
4981;BME280;2507;50.392;7.482;2023-01-25T09:11:54;102588.47;;;5.20;68.87
4981;BME280;2507;50.392;7.482;2023-01-25T09:14:19;102585.69;;;5.32;67.61
4981;BME280;2507;50.392;7.482;2023-01-25T09:16:44;102581.50;;;5.24;68.13
4981;BME280;2507;50.392;7.482;2023-01-25T09:19:10;102582.50;;;5.15;67.44
4981;BME280;2507;50.392;7.482;2023-01-25T09:21:35;102585.38;;;4.39;70.41
4981;BME280;2507;50.392;7.482;2023-01-25T09:24:01;102576.25;;;4.72;69.71
4981;BME280;2507;50.392;7.482;2023-01-25T09:26:26;102574.31;;;4.84;69.23
4981;BME280;2507;50.392;7.482;2023-01-25T09:28:53;102577.97;;;4.73;68.87
4981;BME280;2507;50.392;7.482;2023-01-25T09:31:19;102574.09;;;4.99;68.30
4981;BME280;2507;50.392;7.482;2023-01-25T09:33:45;102574.50;;;4.74;68.73
4981;BME280;2507;50.392;7.482;2023-01-25T09:36:11;102582.97;;;4.24;71.09
4981;BME280;2507;50.392;7.482;2023-01-25T09:38:36;102576.50;;;3.90;72.57
4981;BME280;2507;50.392;7.482;2023-01-25T09:44:49;102572.50;;;3.62;74.69
4981;BME280;2507;50.392;7.482;2023-01-25T09:46:45;102568.13;;;3.65;74.72
4981;BME280;2507;50.392;7.482;2023-01-25T09:49:36;102566.41;;;3.63;74.96
4981;BME280;2507;50.392;7.482;2023-01-25T09:54:49;102561.94;;;3.77;74.21
4981;BME280;2507;50.392;7.482;2023-01-25T09:57:18;102565.44;;;3.74;74.56
4981;BME280;2507;50.392;7.482;2023-01-25T09:59:48;102568.50;;;4.06;73.89
4981;BME280;2507;50.392;7.482;2023-01-25T10:04:55;102580.59;;;4.71;70.46
4981;BME280;2507;50.392;7.482;2023-01-25T10:10:28;102545.56;;;4.93;70.39
4981;BME280;2507;50.392;7.482;2023-01-25T10:12:54;102556.88;;;4.91;69.43
4981;BME280;2507;50.392;7.482;2023-01-25T10:15:21;102541.72;;;5.15;68.66
4981;BME280;2507;50.392;7.482;2023-01-25T10:18:16;102545.59;;;4.92;68.44
4981;BME280;2507;50.392;7.482;2023-01-25T10:20:57;102529.06;;;4.96;68.31
4981;BME280;2507;50.392;7.482;2023-01-25T10:23:26;102528.13;;;5.00;67.06
4981;BME280;2507;50.392;7.482;2023-01-25T10:25:57;102523.91;;;4.93;67.34
4981;BME280;2507;50.392;7.482;2023-01-25T10:28:33;102523.44;;;4.68;68.21
4981;BME280;2507;50.392;7.482;2023-01-25T10:31:06;102521.41;;;4.29;70.28
4981;BME280;2507;50.392;7.482;2023-01-25T10:33:38;102526.06;;;4.07;71.62
4981;BME280;2507;50.392;7.482;2023-01-25T10:36:12;102518.56;;;3.86;72.79
4981;BME280;2507;50.392;7.482;2023-01-25T10:38:40;102514.25;;;3.84;73.22
4981;BME280;2507;50.392;7.482;2023-01-25T10:41:13;102512.56;;;3.81;73.32
4981;BME280;2507;50.392;7.482;2023-01-25T10:43:40;102507.25;;;3.90;73.30
4981;BME280;2507;50.392;7.482;2023-01-25T10:46:18;102503.22;;;4.29;71.50
4981;BME280;2507;50.392;7.482;2023-01-25T10:48:43;102499.63;;;4.39;69.60
4981;BME280;2507;50.392;7.482;2023-01-25T10:51:27;102499.09;;;4.18;70.69
4981;BME280;2507;50.392;7.482;2023-01-25T10:53:58;102491.25;;;4.21;71.01
4981;BME280;2507;50.392;7.482;2023-01-25T10:56:26;102486.69;;;4.36;71.08
4981;BME280;2507;50.392;7.482;2023-01-25T10:59:15;102480.94;;;4.72;69.29
4981;BME280;2507;50.392;7.482;2023-01-25T11:01:42;102482.88;;;4.58;69.56
4981;BME280;2507;50.392;7.482;2023-01-25T11:04:30;102482.72;;;4.69;69.62
4981;BME280;2507;50.392;7.482;2023-01-25T11:06:57;102481.22;;;4.53;69.81
4981;BME280;2507;50.392;7.482;2023-01-25T11:09:37;102477.88;;;4.46;70.50
4981;BME280;2507;50.392;7.482;2023-01-25T11:12:16;102473.66;;;4.39;70.11
4981;BME280;2507;50.392;7.482;2023-01-25T11:14:46;102473.78;;;4.30;70.52
4981;BME280;2507;50.392;7.482;2023-01-25T11:17:28;102466.22;;;4.15;71.26
4981;BME280;2507;50.392;7.482;2023-01-25T11:20:13;102469.53;;;4.25;71.04
4981;BME280;2507;50.392;7.482;2023-01-25T11:22:48;102458.47;;;4.12;70.96
4981;BME280;2507;50.392;7.482;2023-01-25T11:25:28;102446.06;;;4.29;71.78
4981;BME280;2507;50.392;7.482;2023-01-25T11:28:16;102447.47;;;4.51;71.20
4981;BME280;2507;50.392;7.482;2023-01-25T11:30:42;102443.59;;;4.75;69.63
4981;BME280;2507;50.392;7.482;2023-01-25T11:33:10;102445.19;;;4.83;69.10
4981;BME280;2507;50.392;7.482;2023-01-25T11:35:39;102446.53;;;5.04;68.04
4981;BME280;2507;50.392;7.482;2023-01-25T11:38:21;102441.72;;;5.30;66.82
4981;BME280;2507;50.392;7.482;2023-01-25T11:43:58;102427.41;;;5.06;67.31
4981;BME280;2507;50.392;7.482;2023-01-25T12:03:02;102389.50;;;3.93;72.59
4981;BME280;2507;50.392;7.482;2023-01-25T12:22:22;102355.84;;;4.86;68.84
4981;BME280;2507;50.392;7.482;2023-01-25T12:33:14;102331.00;;;4.24;70.42
4981;BME280;2507;50.392;7.482;2023-01-25T12:35:45;102321.28;;;3.83;72.84
4981;BME280;2507;50.392;7.482;2023-01-25T12:38:23;102316.13;;;4.32;70.70
4981;BME280;2507;50.392;7.482;2023-01-25T12:40:55;102310.34;;;4.65;70.17
4981;BME280;2507;50.392;7.482;2023-01-25T12:43:47;102294.13;;;4.95;67.39
4981;BME280;2507;50.392;7.482;2023-01-25T12:46:20;102289.19;;;4.82;67.59
4981;BME280;2507;50.392;7.482;2023-01-25T12:48:49;102297.78;;;4.87;67.96
4981;BME280;2507;50.392;7.482;2023-01-25T12:51:19;102283.28;;;4.74;67.74
4981;BME280;2507;50.392;7.482;2023-01-25T12:53:47;102273.63;;;4.80;68.20
4981;BME280;2507;50.392;7.482;2023-01-25T12:56:41;102281.38;;;4.83;68.14
4981;BME280;2507;50.392;7.482;2023-01-25T13:00:02;102266.78;;;4.76;68.40
4981;BME280;2507;50.392;7.482;2023-01-25T13:05:14;102268.97;;;4.96;67.83
4981;BME280;2507;50.392;7.482;2023-01-25T13:07:52;102259.03;;;5.14;67.87
4981;BME280;2507;50.392;7.482;2023-01-25T13:10:30;102262.75;;;5.41;66.57
4981;BME280;2507;50.392;7.482;2023-01-25T13:13:00;102248.66;;;5.50;66.56
4981;BME280;2507;50.392;7.482;2023-01-25T13:20:57;102246.50;;;5.32;66.69
4981;BME280;2507;50.392;7.482;2023-01-25T13:23:37;102237.66;;;5.39;66.04
4981;BME280;2507;50.392;7.482;2023-01-25T13:28:55;102225.59;;;5.36;66.60
4981;BME280;2507;50.392;7.482;2023-01-25T13:40:02;102201.03;;;4.29;70.40
4981;BME280;2507;50.392;7.482;2023-01-25T13:42:29;102196.47;;;4.40;69.95
4981;BME280;2507;50.392;7.482;2023-01-25T13:45:13;102196.59;;;4.34;70.46
4981;BME280;2507;50.392;7.482;2023-01-25T13:47:41;102195.22;;;4.14;70.89
4981;BME280;2507;50.392;7.482;2023-01-25T13:52:58;102191.56;;;3.79;72.22
4981;BME280;2507;50.392;7.482;2023-01-25T13:55:24;102186.50;;;3.71;73.17
4981;BME280;2507;50.392;7.482;2023-01-25T13:57:50;102186.59;;;3.67;73.30
4981;BME280;2507;50.392;7.482;2023-01-25T14:00:17;102186.41;;;3.77;73.60
4981;BME280;2507;50.392;7.482;2023-01-25T14:02:45;102178.91;;;4.08;73.15
4981;BME280;2507;50.392;7.482;2023-01-25T14:05:22;102165.72;;;4.18;72.23
4981;BME280;2507;50.392;7.482;2023-01-25T14:07:53;102164.09;;;4.56;71.08
4981;BME280;2507;50.392;7.482;2023-01-25T14:10:24;102153.91;;;4.85;68.13
4981;BME280;2507;50.392;7.482;2023-01-25T14:12:53;102151.47;;;4.77;67.74
4981;BME280;2507;50.392;7.482;2023-01-25T14:15:23;102145.19;;;4.87;67.76
4981;BME280;2507;50.392;7.482;2023-01-25T14:18:15;102150.28;;;4.92;68.02
4981;BME280;2507;50.392;7.482;2023-01-25T14:20:44;102151.16;;;4.92;67.05
4981;BME280;2507;50.392;7.482;2023-01-25T14:23:26;102147.50;;;4.99;66.87
4981;BME280;2507;50.392;7.482;2023-01-25T14:25:53;102133.34;;;4.36;69.13
4981;BME280;2507;50.392;7.482;2023-01-25T14:28:20;102136.97;;;3.82;71.97
4981;BME280;2507;50.392;7.482;2023-01-25T14:30:57;102133.31;;;3.46;73.20
4981;BME280;2507;50.392;7.482;2023-01-25T14:33:29;102130.84;;;3.39;74.53
4981;BME280;2507;50.392;7.482;2023-01-25T14:36:04;102136.16;;;3.30;75.36
4981;BME280;2507;50.392;7.482;2023-01-25T14:41:08;102130.97;;;3.33;76.08
4981;BME280;2507;50.392;7.482;2023-01-25T14:43:37;102129.19;;;3.33;75.71
4981;BME280;2507;50.392;7.482;2023-01-25T14:46:29;102126.41;;;3.44;75.75
4981;BME280;2507;50.392;7.482;2023-01-25T14:49:17;102121.91;;;3.55;75.13
4981;BME280;2507;50.392;7.482;2023-01-25T14:52:06;102114.44;;;3.38;75.17
4981;BME280;2507;50.392;7.482;2023-01-25T14:54:36;102113.28;;;3.53;75.58